Time;durP1;ratioP1;P1;durP2;ratioP2;P2;SDS_P1;SDS_P2;PMS_P1;PMS_P2;Temp;Humidity;BMP_temperature;BMP_pressure;BME280_temperature;BME280_humidity;BME280_pressure;Samples;Min_cycle;Max_cycle;Signal;HPM_P1;HPM_P2
2022/03/26 00:01:44;;;;;;;;;;;;;;;8.29;53.36;102549.31;5007019;28;19924;-82
2022/03/26 00:04:10;;;;;;;;;;;;;;;8.35;53.13;102549.47;5029688;28;20020;-82
2022/03/26 00:06:36;;;;;;;;;;;;;;;8.49;52.76;102552.25;5026420;28;20515;-82
2022/03/26 00:09:01;;;;;;;;;;;;;;;8.44;52.92;102549.59;5027243;28;19933;-79
2022/03/26 00:11:26;;;;;;;;;;;;;;;8.12;53.77;102553.31;5022891;28;19983;-79
2022/03/26 00:13:51;;;;;;;;;;;;;;;8.06;53.37;102561.84;5043106;28;19963;-79
2022/03/26 00:16:17;;;;;;;;;;;;;;;8.27;52.42;102553.56;5021454;28;19979;-82
2022/03/26 00:18:42;;;;;;;;;;;;;;;8.02;53.08;102552.31;5008391;28;20479;-76
2022/03/26 00:21:08;;;;;;;;;;;;;;;8.26;52.43;102557.03;5028214;28;19917;-76
2022/03/26 00:23:33;;;;;;;;;;;;;;;8.01;53.11;102555.72;5017864;28;19921;-82
2022/03/26 00:25:59;;;;;;;;;;;;;;;8.08;52.71;102560.19;5026823;28;19921;-82
2022/03/26 00:28:25;;;;;;;;;;;;;;;8.11;52.99;102557.66;5027235;28;19928;-82
2022/03/26 00:30:50;;;;;;;;;;;;;;;7.95;52.92;102559.91;5023229;28;20301;-75
2022/03/26 00:33:16;;;;;;;;;;;;;;;8.02;53.05;102562.66;5022650;28;19921;-78
2022/03/26 00:35:41;;;;;;;;;;;;;;;8.06;52.34;102558.38;5022283;28;20398;-78
2022/03/26 00:38:06;;;;;;;;;;;;;;;7.99;52.79;102554.84;5023850;28;19928;-78
2022/03/26 00:40:32;;;;;;;;;;;;;;;7.93;52.77;102557.31;5024088;28;19964;-78
2022/03/26 00:42:59;;;;;;;;;;;;;;;7.89;52.65;102557.22;5026700;28;19912;-78
2022/03/26 00:45:24;;;;;;;;;;;;;;;7.93;53.10;102559.91;5010569;28;19921;-82
2022/03/26 00:47:49;;;;;;;;;;;;;;;7.98;52.76;102562.56;5021356;28;20489;-82
2022/03/26 00:50:15;;;;;;;;;;;;;;;7.92;53.11;102563.31;5024201;28;19928;-76
2022/03/26 00:52:40;;;;;;;;;;;;;;;7.80;53.30;102568.25;5025831;28;19925;-75
2022/03/26 00:55:06;;;;;;;;;;;;;;;7.86;53.23;102575.25;5024768;28;19921;-82
2022/03/26 00:57:31;;;;;;;;;;;;;;;7.92;52.79;102567.63;5021015;28;19921;-82
2022/03/26 00:59:58;;;;;;;;;;;;;;;7.91;52.68;102560.72;5014599;28;19928;-82
2022/03/26 01:02:24;;;;;;;;;;;;;;;7.85;53.88;102563.19;5015720;28;19925;-82
2022/03/26 01:04:49;;;;;;;;;;;;;;;7.95;53.55;102562.50;5012108;28;20440;-82
2022/03/26 01:07:14;;;;;;;;;;;;;;;7.83;53.07;102565.75;5030347;28;19917;-82
2022/03/26 01:09:39;;;;;;;;;;;;;;;7.85;52.86;102560.59;5036010;28;20410;-82
2022/03/26 01:12:06;;;;;;;;;;;;;;;7.89;52.64;102554.63;5012759;28;19976;-82
2022/03/26 01:14:31;;;;;;;;;;;;;;;7.84;53.15;102548.50;5033652;28;19972;-76
2022/03/26 01:16:56;;;;;;;;;;;;;;;7.69;53.90;102551.69;5032510;28;19945;-76
2022/03/26 01:19:22;;;;;;;;;;;;;;;7.80;54.35;102550.16;5030103;28;20436;-82
2022/03/26 01:21:47;;;;;;;;;;;;;;;7.70;54.06;102550.84;5034777;28;19948;-82
2022/03/26 01:24:13;;;;;;;;;;;;;;;7.77;53.52;102551.81;5015747;28;19921;-82
2022/03/26 01:26:38;;;;;;;;;;;;;;;7.81;54.78;102551.03;5029527;28;19917;-81
2022/03/26 01:29:04;;;;;;;;;;;;;;;7.72;54.29;102543.97;5042375;28;20278;-82
2022/03/26 01:31:30;;;;;;;;;;;;;;;7.74;55.24;102542.28;5033300;28;19925;-79
2022/03/26 01:33:55;;;;;;;;;;;;;;;7.69;53.87;102546.50;5032076;28;19917;-82
2022/03/26 01:36:22;;;;;;;;;;;;;;;7.89;53.25;102539.09;5033308;28;19932;-82
2022/03/26 01:38:48;;;;;;;;;;;;;;;7.69;53.69;102539.63;5028721;28;20430;-82
2022/03/26 01:41:13;;;;;;;;;;;;;;;7.82;53.50;102532.09;5025704;28;19917;-79
2022/03/26 01:43:39;;;;;;;;;;;;;;;7.58;53.51;102527.34;5030490;28;20378;-81
2022/03/26 01:46:05;;;;;;;;;;;;;;;7.75;53.93;102535.41;5027246;28;19957;-82
2022/03/26 01:48:30;;;;;;;;;;;;;;;7.52;54.25;102525.47;5031381;28;20357;-82
2022/03/26 01:50:56;;;;;;;;;;;;;;;7.43;55.08;102533.06;5015894;28;19991;-82
2022/03/26 01:53:21;;;;;;;;;;;;;;;7.63;55.00;102533.44;5031692;28;19921;-82
2022/03/26 01:55:48;;;;;;;;;;;;;;;7.74;54.01;102534.53;5013147;28;19976;-76
2022/03/26 01:58:13;;;;;;;;;;;;;;;7.57;53.96;102529.03;5026496;28;19921;-79
2022/03/26 02:00:39;;;;;;;;;;;;;;;7.52;54.17;102530.63;5010229;28;19921;-82
2022/03/26 02:03:04;;;;;;;;;;;;;;;7.49;53.72;102527.16;5032373;28;20342;-82
2022/03/26 02:05:30;;;;;;;;;;;;;;;7.44;53.83;102526.16;5029770;28;19928;-82
2022/03/26 02:07:55;;;;;;;;;;;;;;;7.55;54.13;102528.13;5031790;28;19917;-82
2022/03/26 02:10:21;;;;;;;;;;;;;;;7.53;53.97;102528.94;5029771;28;19925;-82
2022/03/26 02:12:46;;;;;;;;;;;;;;;7.57;53.90;102525.56;5030293;28;19925;-82
2022/03/26 02:15:12;;;;;;;;;;;;;;;7.55;53.43;102524.69;5014432;28;19921;-82
2022/03/26 02:17:38;;;;;;;;;;;;;;;7.48;53.97;102527.97;5021902;28;19917;-81
2022/03/26 02:20:05;;;;;;;;;;;;;;;7.65;54.59;102535.22;5012890;28;19917;-82
2022/03/26 02:22:31;;;;;;;;;;;;;;;7.60;54.37;102531.69;5026615;28;20305;-82
2022/03/26 02:24:57;;;;;;;;;;;;;;;7.36;54.50;102538.94;5012746;28;19917;-82
2022/03/26 02:27:23;;;;;;;;;;;;;;;7.56;54.82;102534.16;5029933;28;20448;-79
2022/03/26 02:29:50;;;;;;;;;;;;;;;7.53;54.34;102534.09;5026213;28;19927;-79
2022/03/26 02:32:17;;;;;;;;;;;;;;;7.27;55.48;102543.06;5029445;28;19927;-79
2022/03/26 02:34:43;;;;;;;;;;;;;;;7.52;55.08;102538.41;5030729;28;19921;-82
2022/03/26 02:37:08;;;;;;;;;;;;;;;7.31;55.35;102543.16;5025892;28;19980;-82
2022/03/26 02:39:33;;;;;;;;;;;;;;;7.37;54.94;102550.16;5012495;28;19928;-81
2022/03/26 02:41:58;;;;;;;;;;;;;;;7.57;54.13;102541.09;5026193;28;19971;-82
2022/03/26 02:44:24;;;;;;;;;;;;;;;7.06;55.42;102546.06;5010041;28;19972;-82
2022/03/26 02:46:49;;;;;;;;;;;;;;;7.16;55.30;102547.13;5025713;28;19917;-76
2022/03/26 02:49:15;;;;;;;;;;;;;;;7.09;54.71;102546.13;5024622;28;19948;-82
2022/03/26 02:51:41;;;;;;;;;;;;;;;7.09;55.08;102543.53;5027493;28;19929;-82
2022/03/26 02:54:18;;;;;;;;;;;;;;;7.21;55.11;102543.81;5027813;28;20547;-82
2022/03/26 02:56:44;;;;;;;;;;;;;;;7.17;54.82;102541.13;5027036;28;20275;-82
2022/03/26 02:59:09;;;;;;;;;;;;;;;7.18;54.70;102545.44;5025532;28;19971;-82
2022/03/26 03:01:34;;;;;;;;;;;;;;;7.25;54.63;102545.63;5025254;28;19921;-82
2022/03/26 03:03:59;;;;;;;;;;;;;;;7.26;53.92;102537.00;5030945;28;20357;-76
2022/03/26 03:06:25;;;;;;;;;;;;;;;7.03;54.44;102548.56;5026682;28;19921;-76
2022/03/26 03:08:51;;;;;;;;;;;;;;;7.18;54.16;102546.31;5028645;28;19972;-76
2022/03/26 03:11:17;;;;;;;;;;;;;;;7.09;54.24;102544.41;5027988;28;19956;-78
2022/03/26 03:13:42;;;;;;;;;;;;;;;7.08;54.77;102541.78;5027928;28;19933;-76
2022/03/26 03:16:07;;;;;;;;;;;;;;;6.86;54.82;102548.22;5025024;28;19972;-76
2022/03/26 03:18:33;;;;;;;;;;;;;;;6.90;53.77;102547.41;5027198;28;19928;-82
2022/03/26 03:20:58;;;;;;;;;;;;;;;7.19;53.76;102553.25;5027996;28;20408;-78
2022/03/26 03:23:23;;;;;;;;;;;;;;;7.17;53.99;102556.66;5030549;28;19968;-78
2022/03/26 03:25:49;;;;;;;;;;;;;;;6.83;53.78;102555.91;5026406;28;19966;-78
2022/03/26 03:28:14;;;;;;;;;;;;;;;6.87;54.44;102562.84;5009905;28;19917;-78
2022/03/26 03:30:39;;;;;;;;;;;;;;;7.04;53.97;102561.53;5027461;28;20067;-81
2022/03/26 03:33:05;;;;;;;;;;;;;;;6.89;53.34;102562.91;5027900;28;19917;-82
2022/03/26 03:35:30;;;;;;;;;;;;;;;6.88;52.96;102562.03;5026501;28;19993;-76
2022/03/26 03:37:55;;;;;;;;;;;;;;;6.49;54.75;102568.84;5023619;28;20538;-76
2022/03/26 03:40:21;;;;;;;;;;;;;;;6.75;54.01;102569.47;5009530;28;19929;-78
2022/03/26 03:42:46;;;;;;;;;;;;;;;6.73;53.29;102566.84;5029501;28;19921;-78
2022/03/26 03:45:12;;;;;;;;;;;;;;;6.86;53.35;102563.72;5021490;28;19936;-81
2022/03/26 03:47:37;;;;;;;;;;;;;;;6.79;53.64;102563.53;5025258;28;19929;-81
2022/03/26 03:50:04;;;;;;;;;;;;;;;6.79;52.87;102564.41;5018400;28;19968;-82
2022/03/26 03:52:29;;;;;;;;;;;;;;;6.73;53.89;102561.69;5026838;28;19932;-75
2022/03/26 03:54:54;;;;;;;;;;;;;;;6.86;52.54;102555.09;5026828;28;19940;-76
2022/03/26 03:57:20;;;;;;;;;;;;;;;6.64;53.26;102558.00;5011251;28;20370;-76
2022/03/26 03:59:45;;;;;;;;;;;;;;;6.74;53.25;102552.22;5025216;28;19925;-82
2022/03/26 04:02:10;;;;;;;;;;;;;;;6.80;53.44;102557.53;5026733;28;20032;-79
2022/03/26 04:04:39;;;;;;;;;;;;;;;6.88;54.22;102553.41;5028393;28;20527;-79
2022/03/26 04:07:05;;;;;;;;;;;;;;;6.70;54.38;102556.44;5020198;28;19956;-79
2022/03/26 04:09:30;;;;;;;;;;;;;;;6.77;53.77;102555.75;5025094;28;19971;-79
2022/03/26 04:11:55;;;;;;;;;;;;;;;6.84;53.22;102564.53;5025769;28;19925;-81
2022/03/26 04:14:20;;;;;;;;;;;;;;;6.83;53.65;102561.06;5028739;28;19925;-82
2022/03/26 04:16:46;;;;;;;;;;;;;;;6.76;53.00;102561.75;5028215;28;19918;-82
2022/03/26 04:19:12;;;;;;;;;;;;;;;6.96;52.58;102555.31;5026782;28;20432;-79
2022/03/26 04:21:38;;;;;;;;;;;;;;;6.75;52.32;102559.16;5014267;28;19923;-79
2022/03/26 04:24:03;;;;;;;;;;;;;;;6.89;52.71;102561.19;5010570;28;20479;-78
2022/03/26 04:26:28;;;;;;;;;;;;;;;6.70;52.72;102563.31;5027755;28;20345;-81
2022/03/26 04:28:54;;;;;;;;;;;;;;;6.85;52.67;102566.25;5020856;28;20388;-82
2022/03/26 04:31:19;;;;;;;;;;;;;;;6.85;52.46;102563.66;5024285;28;19929;-81
2022/03/26 04:33:44;;;;;;;;;;;;;;;6.88;53.10;102562.03;5014659;28;19944;-82
2022/03/26 04:36:10;;;;;;;;;;;;;;;6.77;51.92;102566.09;5032565;28;20516;-82
2022/03/26 04:38:36;;;;;;;;;;;;;;;6.73;52.29;102563.38;5029056;28;19921;-79
2022/03/26 04:41:01;;;;;;;;;;;;;;;6.68;52.37;102571.03;5028779;28;19956;-78
2022/03/26 04:43:27;;;;;;;;;;;;;;;6.47;52.14;102575.66;5027742;28;19964;-82
2022/03/26 04:45:52;;;;;;;;;;;;;;;6.40;53.19;102574.63;5025162;28;19925;-79
2022/03/26 04:48:17;;;;;;;;;;;;;;;6.67;53.04;102578.72;5025367;28;19921;-81
2022/03/26 04:50:43;;;;;;;;;;;;;;;6.61;52.33;102576.88;5025895;28;19917;-81
2022/03/26 04:53:09;;;;;;;;;;;;;;;6.53;53.42;102581.88;5025661;28;19925;-81
2022/03/26 04:55:34;;;;;;;;;;;;;;;6.67;52.49;102584.78;5007715;28;20063;-76
2022/03/26 04:58:00;;;;;;;;;;;;;;;6.70;53.12;102581.38;5026064;28;19987;-81
2022/03/26 05:00:26;;;;;;;;;;;;;;;6.61;52.67;102579.47;5022459;28;19932;-76
2022/03/26 05:02:51;;;;;;;;;;;;;;;6.48;52.85;102580.03;5009920;28;19956;-82
2022/03/26 05:05:17;;;;;;;;;;;;;;;6.62;51.87;102583.81;5008354;28;19980;-76
2022/03/26 05:07:48;;;;;;;;;;;;;;;6.31;53.73;102587.28;5023787;28;19929;-78
2022/03/26 05:10:18;;;;;;;;;;;;;;;6.08;54.08;102585.81;5030644;28;19940;-83
2022/03/26 05:12:44;;;;;;;;;;;;;;;6.47;53.56;102588.56;5044775;28;20338;-83
2022/03/26 05:15:10;;;;;;;;;;;;;;;6.63;52.68;102590.72;5028590;28;19928;-76
2022/03/26 05:17:36;;;;;;;;;;;;;;;6.42;52.75;102590.16;5026053;28;19980;-76
2022/03/26 05:20:01;;;;;;;;;;;;;;;6.38;53.10;102590.91;5028138;28;20063;-82
2022/03/26 05:22:28;;;;;;;;;;;;;;;6.18;53.91;102586.94;5024865;28;19944;-79
2022/03/26 05:24:54;;;;;;;;;;;;;;;5.99;54.72;102591.63;5028903;28;19936;-82
2022/03/26 05:27:19;;;;;;;;;;;;;;;5.88;55.21;102595.63;5028577;28;19921;-83
2022/03/26 05:29:46;;;;;;;;;;;;;;;6.38;54.65;102596.06;5028094;28;19940;-82
2022/03/26 05:32:11;;;;;;;;;;;;;;;6.39;53.78;102595.25;5025968;28;20028;-79
2022/03/26 05:34:37;;;;;;;;;;;;;;;6.52;53.23;102597.31;5025649;28;20380;-79
2022/03/26 05:37:04;;;;;;;;;;;;;;;6.26;54.16;102601.78;5010747;28;20414;-79
2022/03/26 05:39:30;;;;;;;;;;;;;;;6.43;54.57;102608.25;5021801;28;19922;-79
2022/03/26 05:41:55;;;;;;;;;;;;;;;6.75;52.76;102608.22;5025066;28;19943;-81
2022/03/26 05:44:21;;;;;;;;;;;;;;;6.73;52.59;102613.31;5031409;28;22266;-79
2022/03/26 05:46:46;;;;;;;;;;;;;;;6.70;52.72;102617.53;5029397;28;19924;-79
2022/03/26 05:49:11;;;;;;;;;;;;;;;6.51;52.90;102621.41;5030255;28;19921;-82
2022/03/26 05:51:36;;;;;;;;;;;;;;;6.61;52.80;102625.94;5012312;28;19931;-75
2022/03/26 05:54:02;;;;;;;;;;;;;;;6.73;52.48;102626.25;5025411;28;19944;-82
2022/03/26 05:56:27;;;;;;;;;;;;;;;6.58;52.24;102631.91;5023302;28;19917;-78
2022/03/26 05:58:52;;;;;;;;;;;;;;;6.32;52.95;102626.88;5022322;28;20004;-82
2022/03/26 06:01:18;;;;;;;;;;;;;;;6.44;53.29;102634.94;5038411;28;19939;-82
2022/03/26 06:03:43;;;;;;;;;;;;;;;6.24;53.41;102634.44;5027988;28;19929;-82
2022/03/26 06:06:09;;;;;;;;;;;;;;;6.20;53.38;102637.75;5023133;28;19921;-76
2022/03/26 06:08:34;;;;;;;;;;;;;;;6.13;54.23;102640.16;5036766;28;21137;-76
2022/03/26 06:10:59;;;;;;;;;;;;;;;6.26;54.22;102637.03;5024600;28;19929;-75
2022/03/26 06:13:25;;;;;;;;;;;;;;;6.52;53.11;102631.75;5028751;28;20424;-83
2022/03/26 06:15:50;;;;;;;;;;;;;;;6.48;54.75;102639.41;5024187;28;19925;-76
2022/03/26 06:18:15;;;;;;;;;;;;;;;6.44;53.78;102640.97;5019321;28;20280;-76
2022/03/26 06:20:42;;;;;;;;;;;;;;;6.38;53.18;102637.38;5013197;28;20346;-79
2022/03/26 06:23:07;;;;;;;;;;;;;;;6.54;53.84;102645.56;5027880;28;20397;-78
2022/03/26 06:25:33;;;;;;;;;;;;;;;6.74;53.44;102635.75;5020295;28;19921;-78
2022/03/26 06:27:58;;;;;;;;;;;;;;;6.68;52.30;102642.47;5029168;28;19925;-82
2022/03/26 06:30:23;;;;;;;;;;;;;;;6.84;52.58;102640.28;5025956;28;20464;-81
2022/03/26 06:32:49;;;;;;;;;;;;;;;6.84;53.38;102645.44;5027658;28;19933;-78
2022/03/26 06:35:14;;;;;;;;;;;;;;;6.89;53.05;102648.16;5028241;28;20410;-81
2022/03/26 06:37:39;;;;;;;;;;;;;;;6.83;53.90;102654.06;5027730;28;19939;-82
2022/03/26 06:40:06;;;;;;;;;;;;;;;6.90;53.37;102653.34;4984898;28;19955;-82
2022/03/26 06:42:31;;;;;;;;;;;;;;;6.90;52.53;102650.75;5029480;28;20221;-82
2022/03/26 06:44:59;;;;;;;;;;;;;;;6.81;53.87;102652.28;5026692;28;19921;-82
2022/03/26 06:47:28;;;;;;;;;;;;;;;6.85;54.24;102654.06;5001234;28;20048;-78
2022/03/26 06:49:54;;;;;;;;;;;;;;;6.95;54.54;102653.47;5028000;28;20337;-81
2022/03/26 06:52:22;;;;;;;;;;;;;;;6.98;55.67;102661.28;5022826;28;20356;-83
2022/03/26 06:54:47;;;;;;;;;;;;;;;7.09;54.89;102662.41;5026383;28;19925;-83
2022/03/26 06:57:12;;;;;;;;;;;;;;;7.07;54.59;102669.25;5023681;28;20016;-83
2022/03/26 06:59:38;;;;;;;;;;;;;;;7.09;54.00;102668.47;5011625;28;19948;-78
2022/03/26 07:02:04;;;;;;;;;;;;;;;6.99;55.50;102669.06;5025399;28;20362;-76
2022/03/26 07:04:29;;;;;;;;;;;;;;;7.16;54.94;102664.31;5026177;28;20383;-83
2022/03/26 07:06:54;;;;;;;;;;;;;;;7.06;55.76;102670.97;5021483;28;20511;-77
2022/03/26 07:09:20;;;;;;;;;;;;;;;7.10;56.38;102672.81;5011361;28;19925;-76
2022/03/26 07:11:45;;;;;;;;;;;;;;;7.06;55.95;102681.31;5026912;28;20074;-84
2022/03/26 07:14:10;;;;;;;;;;;;;;;6.94;56.84;102680.13;5029455;28;19971;-76
2022/03/26 07:16:36;;;;;;;;;;;;;;;7.06;56.39;102677.84;5028679;28;19985;-78
2022/03/26 07:19:01;;;;;;;;;;;;;;;7.19;56.04;102679.91;5025212;28;20425;-78
2022/03/26 07:21:26;;;;;;;;;;;;;;;7.16;56.84;102686.69;5009730;28;19976;-77
2022/03/26 07:23:52;;;;;;;;;;;;;;;7.07;56.48;102685.66;5033363;28;20512;-79
2022/03/26 07:26:17;;;;;;;;;;;;;;;7.11;57.05;102691.75;5024389;28;20055;-77
2022/03/26 07:28:43;;;;;;;;;;;;;;;7.16;56.08;102685.00;5032177;28;20002;-77
2022/03/26 07:31:08;;;;;;;;;;;;;;;7.24;56.67;102690.31;5029449;28;20076;-79
2022/03/26 07:33:33;;;;;;;;;;;;;;;7.26;57.01;102689.50;5028770;28;19925;-83
2022/03/26 07:35:59;;;;;;;;;;;;;;;7.33;56.97;102687.94;5027277;28;19921;-77
2022/03/26 07:38:24;;;;;;;;;;;;;;;7.41;57.43;102692.44;5027793;28;19931;-79
2022/03/26 07:40:49;;;;;;;;;;;;;;;7.42;56.93;102689.03;5035818;28;19939;-79
2022/03/26 07:43:15;;;;;;;;;;;;;;;7.51;57.28;102693.53;5034304;28;19923;-77
2022/03/26 07:45:40;;;;;;;;;;;;;;;7.53;56.44;102691.84;5015336;28;19935;-77
2022/03/26 07:48:06;;;;;;;;;;;;;;;7.53;56.60;102695.31;5030252;28;19917;-76
2022/03/26 07:50:31;;;;;;;;;;;;;;;7.60;56.77;102696.31;5026099;28;19948;-77
2022/03/26 07:52:56;;;;;;;;;;;;;;;7.66;56.56;102704.22;5006806;28;19980;-76
2022/03/26 07:55:22;;;;;;;;;;;;;;;7.69;57.00;102700.00;5030218;28;20068;-84
2022/03/26 07:57:47;;;;;;;;;;;;;;;7.62;58.09;102704.97;5034062;28;19921;-76
2022/03/26 08:00:13;;;;;;;;;;;;;;;7.69;57.15;102696.53;5012909;28;20287;-79
2022/03/26 08:02:38;;;;;;;;;;;;;;;7.89;55.84;102694.34;5016687;28;19917;-83
2022/03/26 08:05:04;;;;;;;;;;;;;;;7.83;56.10;102705.44;5027023;28;19917;-83
2022/03/26 08:07:29;;;;;;;;;;;;;;;7.82;57.76;102700.25;5026328;28;20004;-77
2022/03/26 08:09:55;;;;;;;;;;;;;;;7.69;58.01;102693.94;5027272;28;19929;-79
2022/03/26 08:12:20;;;;;;;;;;;;;;;7.97;55.44;102698.84;5038098;28;19936;-79
2022/03/26 08:14:45;;;;;;;;;;;;;;;7.92;56.06;102690.13;5006217;28;20977;-83
2022/03/26 08:17:11;;;;;;;;;;;;;;;7.83;57.31;102692.50;5029084;28;19913;-83
2022/03/26 08:19:37;;;;;;;;;;;;;;;7.81;56.76;102696.78;5028882;28;20008;-84
2022/03/26 08:22:03;;;;;;;;;;;;;;;7.87;56.02;102694.34;5029904;28;19982;-83
2022/03/26 08:24:28;;;;;;;;;;;;;;;7.97;56.85;102693.66;5021313;28;19928;-83
2022/03/26 08:26:54;;;;;;;;;;;;;;;7.95;56.46;102695.34;5028239;28;19944;-80
2022/03/26 08:29:19;;;;;;;;;;;;;;;8.05;56.27;102702.47;5023593;28;20381;-79
2022/03/26 08:31:44;;;;;;;;;;;;;;;8.12;55.33;102700.84;5024730;28;19933;-79
2022/03/26 08:34:10;;;;;;;;;;;;;;;7.99;56.53;102701.47;5026931;28;19925;-79
2022/03/26 08:36:37;;;;;;;;;;;;;;;8.21;56.97;102704.50;5010282;28;20279;-79
2022/03/26 08:39:03;;;;;;;;;;;;;;;8.21;56.06;102706.22;5011139;28;20341;-82
2022/03/26 08:41:28;;;;;;;;;;;;;;;8.27;53.82;102702.03;5024706;28;19921;-82
2022/03/26 08:43:57;;;;;;;;;;;;;;;8.28;53.83;102705.50;5023549;28;19925;-77
2022/03/26 08:46:22;;;;;;;;;;;;;;;8.36;54.59;102703.06;5006941;28;19929;-77
2022/03/26 08:48:48;;;;;;;;;;;;;;;8.40;54.38;102707.47;5019139;28;19921;-78
2022/03/26 08:51:13;;;;;;;;;;;;;;;8.43;54.87;102699.78;5027868;28;19980;-84
2022/03/26 08:53:39;;;;;;;;;;;;;;;8.46;56.03;102702.41;5032088;28;19917;-83
2022/03/26 08:56:06;;;;;;;;;;;;;;;8.40;56.27;102699.72;5025183;28;19979;-84
2022/03/26 08:58:31;;;;;;;;;;;;;;;8.47;55.06;102694.69;5001795;28;19921;-77
2022/03/26 09:00:57;;;;;;;;;;;;;;;8.56;54.23;102700.00;5024555;28;19928;-76
2022/03/26 09:03:22;;;;;;;;;;;;;;;8.54;55.14;102700.84;5027063;28;19917;-77
2022/03/26 09:05:48;;;;;;;;;;;;;;;8.67;54.57;102697.63;5023163;28;20348;-77
2022/03/26 09:08:14;;;;;;;;;;;;;;;8.80;52.46;102695.25;5024821;28;20421;-83
2022/03/26 09:10:39;;;;;;;;;;;;;;;8.89;51.58;102693.69;5020826;28;19928;-79
2022/03/26 09:13:05;;;;;;;;;;;;;;;8.94;50.79;102681.66;5028185;28;19979;-79
2022/03/26 09:15:30;;;;;;;;;;;;;;;8.98;50.85;102680.88;5032141;28;20003;-84
2022/03/26 09:17:56;;;;;;;;;;;;;;;8.98;51.51;102681.72;5018927;28;19932;-79
2022/03/26 09:20:21;;;;;;;;;;;;;;;9.11;51.33;102681.09;5021095;28;19921;-79
2022/03/26 09:22:46;;;;;;;;;;;;;;;9.17;50.28;102681.19;5017067;28;19975;-79
2022/03/26 09:25:12;;;;;;;;;;;;;;;9.18;52.05;102687.25;5027016;28;19921;-79
2022/03/26 09:27:37;;;;;;;;;;;;;;;9.23;52.08;102683.88;5026446;28;19968;-79
2022/03/26 09:30:03;;;;;;;;;;;;;;;9.19;52.83;102692.44;5028657;28;19928;-83
2022/03/26 09:32:28;;;;;;;;;;;;;;;9.15;53.78;102697.56;5025329;28;20004;-82
2022/03/26 09:34:54;;;;;;;;;;;;;;;9.28;52.36;102689.09;5029170;28;19978;-83
2022/03/26 09:37:19;;;;;;;;;;;;;;;9.31;52.59;102684.84;5026728;28;20401;-80
2022/03/26 09:39:44;;;;;;;;;;;;;;;9.34;53.22;102687.47;5029698;28;19921;-78
2022/03/26 09:42:11;;;;;;;;;;;;;;;9.39;52.40;102678.91;5029351;28;19925;-83
2022/03/26 09:44:37;;;;;;;;;;;;;;;9.45;52.45;102681.59;5033114;28;20056;-82
2022/03/26 09:47:06;;;;;;;;;;;;;;;9.45;53.10;102681.59;5032569;28;20015;-82
2022/03/26 09:49:31;;;;;;;;;;;;;;;9.38;54.64;102682.34;5023281;28;19921;-83
2022/03/26 09:51:57;;;;;;;;;;;;;;;9.42;53.85;102681.53;5026760;28;19928;-80
2022/03/26 09:54:23;;;;;;;;;;;;;;;9.46;53.63;102683.31;5023722;28;19917;-83
2022/03/26 09:56:48;;;;;;;;;;;;;;;9.54;52.67;102681.72;5030598;28;19927;-82
2022/03/26 09:59:19;;;;;;;;;;;;;;;9.62;52.81;102668.00;5014615;28;19952;-82
2022/03/26 10:01:44;;;;;;;;;;;;;;;9.65;53.07;102673.22;5028182;28;19976;-82
2022/03/26 10:04:10;;;;;;;;;;;;;;;9.74;52.00;102669.88;5033408;28;19921;-82
2022/03/26 10:06:35;;;;;;;;;;;;;;;9.79;52.40;102668.19;5031157;28;20590;-82
2022/03/26 10:09:01;;;;;;;;;;;;;;;9.81;52.46;102674.28;5029950;28;19921;-82
2022/03/26 10:11:30;;;;;;;;;;;;;;;9.78;53.25;102669.91;5026692;28;20016;-82
2022/03/26 10:13:56;;;;;;;;;;;;;;;9.85;53.17;102663.06;5037372;28;19928;-77
2022/03/26 10:16:21;;;;;;;;;;;;;;;9.89;53.33;102673.56;5006699;28;20160;-76
2022/03/26 10:18:47;;;;;;;;;;;;;;;9.89;51.81;102665.78;5026883;28;19925;-76
2022/03/26 10:21:20;;;;;;;;;;;;;;;9.98;51.36;102666.72;5013902;28;19921;-82
2022/03/26 10:23:46;;;;;;;;;;;;;;;10.06;49.29;102659.91;5032924;28;20024;-82
2022/03/26 10:26:11;;;;;;;;;;;;;;;10.10;49.97;102659.09;5030333;28;19913;-82
2022/03/26 10:28:40;;;;;;;;;;;;;;;10.18;50.20;102658.31;5019339;28;20409;-82
2022/03/26 10:34:21;;;;;;;;;;;;;;;10.27;48.95;102652.34;5025371;28;19948;-82
2022/03/26 10:36:54;;;;;;;;;;;;;;;10.31;49.00;102649.81;5032301;28;19921;-82
2022/03/26 10:39:21;;;;;;;;;;;;;;;10.30;49.72;102644.56;5032270;28;20658;-82
2022/03/26 10:41:47;;;;;;;;;;;;;;;10.32;49.73;102646.31;5029084;28;19960;-80
2022/03/26 10:44:14;;;;;;;;;;;;;;;10.35;50.62;102637.69;5029131;28;19959;-76
2022/03/26 10:46:40;;;;;;;;;;;;;;;10.39;50.52;102648.13;5006343;28;20494;-76
2022/03/26 10:49:06;;;;;;;;;;;;;;;10.42;49.89;102645.56;5024852;28;20016;-76
2022/03/26 10:51:34;;;;;;;;;;;;;;;10.46;50.75;102642.13;4996173;28;19985;-82
2022/03/26 10:54:06;;;;;;;;;;;;;;;10.49;50.59;102636.13;5024849;28;19995;-82
2022/03/26 10:56:33;;;;;;;;;;;;;;;10.54;49.70;102633.53;5027711;28;19923;-82
2022/03/26 10:58:59;;;;;;;;;;;;;;;10.54;50.10;102633.53;5015141;28;19928;-82
2022/03/26 11:01:24;;;;;;;;;;;;;;;10.60;50.60;102631.00;5017057;28;20401;-82
2022/03/26 11:03:49;;;;;;;;;;;;;;;10.61;50.89;102630.16;5032447;28;19951;-82
2022/03/26 11:06:17;;;;;;;;;;;;;;;10.64;49.87;102625.81;5008150;28;19927;-80
2022/03/26 11:08:43;;;;;;;;;;;;;;;10.68;50.07;102627.59;5028744;28;19916;-76
2022/03/26 11:11:09;;;;;;;;;;;;;;;10.80;48.95;102619.91;5034542;28;19983;-83
2022/03/26 11:13:37;;;;;;;;;;;;;;;10.83;48.37;102613.84;5016552;28;19921;-79
2022/03/26 11:16:04;;;;;;;;;;;;;;;10.95;48.02;102606.13;5009323;28;19918;-82
2022/03/26 11:18:50;;;;;;;;;;;;;;;11.14;46.33;102608.00;5024970;28;20540;-83
2022/03/26 11:21:30;;;;;;;;;;;;;;;10.98;47.98;102604.44;5009182;28;19925;-83
2022/03/26 11:24:19;;;;;;;;;;;;;;;10.91;48.64;102602.63;5022070;28;20489;-79
2022/03/26 11:26:53;;;;;;;;;;;;;;;10.93;48.58;102605.25;5029006;28;19917;-79
2022/03/26 11:29:24;;;;;;;;;;;;;;;10.98;48.36;102601.84;5026147;28;19914;-77
2022/03/26 11:32:16;;;;;;;;;;;;;;;11.08;47.72;102597.56;5027015;28;19921;-79
2022/03/26 11:34:42;;;;;;;;;;;;;;;11.04;48.51;102598.41;5005766;28;19921;-82
2022/03/26 11:37:11;;;;;;;;;;;;;;;11.11;47.95;102600.19;5026622;28;19917;-83
2022/03/26 11:39:47;;;;;;;;;;;;;;;11.21;47.38;102595.88;5028270;28;20032;-80
2022/03/26 11:42:12;;;;;;;;;;;;;;;11.23;47.71;102597.66;5022686;28;19924;-78
2022/03/26 11:50:41;;;;;;;;;;;;;;;11.30;48.08;102590.75;5022284;28;19918;-77
2022/03/26 11:53:12;;;;;;;;;;;;;;;11.37;47.54;102584.75;5022587;28;19944;-79
2022/03/26 11:55:44;;;;;;;;;;;;;;;11.64;45.57;102581.38;5022506;28;20392;-79
2022/03/26 11:58:13;;;;;;;;;;;;;;;11.46;46.42;102585.66;5039003;28;19955;-76
2022/03/26 12:01:12;;;;;;;;;;;;;;;11.55;45.51;102575.28;5035586;28;19925;-82
2022/03/26 12:03:41;;;;;;;;;;;;;;;11.43;47.01;102576.97;4994896;28;19949;-81
2022/03/26 12:08:51;;;;;;;;;;;;;;;11.52;45.74;102564.84;5024061;28;20012;-77
2022/03/26 12:11:19;;;;;;;;;;;;;;;11.47;46.03;102560.50;5028450;28;20019;-77
2022/03/26 12:13:58;;;;;;;;;;;;;;;11.42;48.02;102559.59;5026274;28;19925;-77
2022/03/26 12:16:46;;;;;;;;;;;;;;;11.41;47.76;102561.31;5020483;28;20007;-82
2022/03/26 12:19:11;;;;;;;;;;;;;;;11.54;47.02;102552.72;5004194;28;19925;-82
2022/03/26 12:21:48;;;;;;;;;;;;;;;11.60;46.33;102546.66;5010170;28;19967;-76
2022/03/26 12:24:19;;;;;;;;;;;;;;;11.63;45.77;102540.59;5031343;28;19929;-79
2022/03/26 12:26:48;;;;;;;;;;;;;;;11.60;46.30;102537.97;5038656;28;19917;-82
2022/03/26 12:29:14;;;;;;;;;;;;;;;11.56;47.63;102539.72;5027487;28;19923;-82
2022/03/26 12:31:40;;;;;;;;;;;;;;;11.83;45.44;102537.16;5021778;28;19925;-82
2022/03/26 12:34:07;;;;;;;;;;;;;;;12.06;43.94;102522.47;5023586;28;20124;-82
2022/03/26 12:36:35;;;;;;;;;;;;;;;11.94;44.83;102518.97;5025955;28;20422;-81
2022/03/26 12:39:00;;;;;;;;;;;;;;;11.62;46.71;102518.03;5023834;28;20310;-82
2022/03/26 12:41:26;;;;;;;;;;;;;;;11.75;45.75;102511.97;5027113;28;19913;-79
2022/03/26 12:43:52;;;;;;;;;;;;;;;11.95;45.09;102511.13;5029687;28;19921;-82
2022/03/26 12:46:17;;;;;;;;;;;;;;;12.01;45.00;102515.47;5026546;28;19957;-79
2022/03/26 12:48:42;;;;;;;;;;;;;;;11.96;44.98;102505.06;5020009;28;19983;-79
2022/03/26 12:51:08;;;;;;;;;;;;;;;11.93;45.17;102501.59;5027375;28;19921;-79
2022/03/26 12:53:35;;;;;;;;;;;;;;;11.96;44.48;102496.38;5025656;28;19921;-82